Flight Track Log - Related Links

Times and Time Zones

All times are in EST time to prevent confusion due to time zone crossing. See the UCA3597 flight status page for this flight to view local times or setup timezone preferences in your user account.

Time Position Orientation Groundspeed Altitude Reporting Facility
EST Latitude Longitude Course Direction KTS MPH feet Rate Location/Type
Thu 08:05:59 PM 42.1547 -75.9822 189° South 123 142 3,900  Level New York Center
Thu 08:06:59 PM 42.1175 -76.0211 218° Southwest 142 163 5,100 1,300 Climbing New York Center
Thu 08:07:59 PM 42.0783 -76.0600 216° Southwest 156 180 6,500 1,400 Climbing New York Center
Thu 08:08:59 PM 42.0372 -76.0958 213° Southwest 172 198 7,900 1,350 Climbing New York Center
Thu 08:09:59 PM 41.9956 -76.1400 218° Southwest 177 204 9,200 1,300 Climbing New York Center
Thu 08:10:00 PM 41.4823 -76.3228 189° South  Level Estimated
Thu 08:10:59 PM 41.9542 -76.1811 216° Southwest 188 216 10,500  Level New York Center
Thu 08:11:59 PM 41.9128 -76.2225 217° Southwest 188 216 11,800 1,250 Climbing New York Center
Thu 08:12:59 PM 41.8758 -76.2556 214° Southwest 182 209 13,000 1,100 Climbing New York Center
Thu 08:13:59 PM 41.8344 -76.2967 217° Southwest 182 209 14,000 1,000 Climbing New York Center
Thu 08:14:59 PM 41.7931 -76.3350 215° Southwest 182 209 15,000 1,000 Climbing New York Center
Thu 08:15:59 PM 41.7536 -76.3761 218° Southwest 187 215 16,000 500 Climbing New York Center
Thu 08:16:59 PM 41.7119 -76.4172 216° Southwest 194 223 16,000  Level New York Center
Thu 08:17:59 PM 41.6619 -76.4658 216° Southwest 212 244 16,000  Level New York Center
Thu 08:18:59 PM 41.6050 -76.5192 215° Southwest 229 264 16,000  Level New York Center
Thu 08:19:59 PM 41.5528 -76.5672 215° Southwest 229 264 16,000  Level New York Center
Thu 08:20:59 PM 41.5047 -76.6158 217° Southwest 229 264 16,000  Level New York Center
Thu 08:21:59 PM 41.4522 -76.6639 214° Southwest 229 264 16,000  Level New York Center
Thu 08:22:59 PM 41.4039 -76.7150 218° Southwest 229 264 16,000  Level New York Center
Thu 08:23:59 PM 41.3536 -76.7631 216° Southwest 229 264 16,000  Level New York Center
Thu 08:24:59 PM 41.2917 -76.7906 198° South 234 269 16,000  Level New York Center
Thu 08:25:59 PM 41.2264 -76.8069 191° South 234 269 16,000  Level New York Center
Thu 08:27:00 PM 41.1628 -76.8261 193° South 239 275 16,000  Level New York Center
Thu 08:27:59 PM 41.0908 -76.8472 192° South 244 281 16,000  Level New York Center
Thu 08:28:59 PM 41.0275 -76.8636 191° South 244 281 16,000  Level New York Center
Thu 08:29:59 PM 40.9622 -76.8797 191° South 239 275 16,000  Level New York Center
Thu 08:30:59 PM 40.9028 -76.8964 192° South 234 269 16,000  Level New York Center
Thu 08:31:59 PM 40.8394 -76.9125 191° South 234 269 16,000  Level New York Center
Thu 08:32:59 PM 40.7719 -76.9311 192° South 240 276 16,000  Level New York Center
Thu 08:33:59 PM 40.7106 -76.9503 193° South 240 276 16,000  Level New York Center
Thu 08:34:59 PM 40.6450 -76.9664 191° South 245 282 16,000  Level New York Center
Thu 08:35:59 PM 40.5794 -76.9850 192° South 245 282 16,000  Level New York Center
Thu 08:36:59 PM 40.5139 -77.0036 192° South 240 276 16,000  Level New York Center
Thu 08:37:59 PM 40.4547 -77.0175 190° South 240 276 16,000 -150 Level New York Center
Thu 08:38:59 PM 40.3847 -77.0383 193° South 240 276 15,700 -600 Descending New York Center
Thu 08:39:59 PM 40.3214 -77.0572 193° South 252 290 14,800 -850 Descending New York Center
Thu 08:40:59 PM 40.2431 -77.0772 191° South 263 303 14,000 -610 Descending New York Center
Thu 08:42:56 PM 40.1167 -77.1167 193° South 239 275 13,000 -712 Descending Potomac TRACON
Thu 08:43:56 PM 40.0500 -77.1333 191° South 238 274 11,900 -1,050 Descending Potomac TRACON
Thu 08:44:56 PM 39.9833 -77.1500 191° South 235 270 10,900 -900 Descending Potomac TRACON
Thu 08:45:56 PM 39.9333 -77.1833 207° Southwest 232 267 10,100 -850 Descending Potomac TRACON
Thu 08:46:56 PM 39.8833 -77.2167 207° Southwest 237 273 9,200 -950 Descending Potomac TRACON
Thu 08:47:56 PM 39.8167 -77.2333 191° South 229 264 8,200 -1,050 Descending Potomac TRACON
Thu 08:48:56 PM 39.7500 -77.2500 191° South 225 259 7,100 -950 Descending Potomac TRACON
Thu 08:49:56 PM 39.7000 -77.2667 194° South 232 267 6,300 -579 Descending Potomac TRACON
Thu 08:50:50 PM 39.6333 -77.2667 180° South 232 267 6,000 -632 Descending Potomac TRACON
Thu 08:51:50 PM 39.5667 -77.3000 201° Southwest 227 261 5,100 -950 Descending Potomac TRACON
Thu 08:52:50 PM 39.5167 -77.3333 207° Southwest 224 258 4,100 -550 Descending Potomac TRACON
Thu 08:53:50 PM 39.4667 -77.3667 207° Southwest 217 250 4,000 -50 Descending Potomac TRACON
Thu 08:54:50 PM 39.4000 -77.4167 210° Southwest 218 251 4,000  Level Potomac TRACON
Thu 08:55:50 PM 39.3500 -77.4333 194° South 220 253 4,000 -150 Level Potomac TRACON
Thu 08:56:50 PM 39.2833 -77.4333 180° South 225 259 3,700 -500 Descending Potomac TRACON
Thu 08:57:50 PM 39.2167 -77.4333 180° South 224 258 3,000 -850 Descending Potomac TRACON
Thu 08:58:50 PM 39.1667 -77.4333 180° South 214 246 2,000 -476 Descending Potomac TRACON
Thu 08:59:56 PM 39.1000 -77.4333 180° South 195 224 2,000  Level Potomac TRACON
Thu 09:00:56 PM 39.0667 -77.4333 180° South 146 168 2,000 -150 Level Potomac TRACON
Thu 09:01:56 PM 39.0333 -77.4333 180° South 96 110 1,700 -347 Descending Potomac TRACON
Thu 09:02:57 PM 39.0000 -77.4333 180° South 88 101 1,300 -472 Descending Potomac TRACON
Thu 09:04:03 PM 38.9833 -77.4333 180° South 98 113 700 -545 Descending Potomac TRACON
Thu 09:06:00 PM 38.9474 -77.4599 180° South  Level Estimated
Thu 09:13:00 PM 38.9474 -77.4599 349° North  Level Estimated

Login

Don't have an account? Register now (free) for customized features, flight alerts, and more!